Weather at Vijaynagar Advanced Landing Ground

Public forecast

Using degrees Celsius for public forecast. Weather courtesy of forecast.io.

Closest aviation weather report (METAR) to Vijaynagar Advanced Landing Ground

Report is more than 2 hours old.

Closest report is Dibrugarh Airport, 107.4 nm (198.9 km) W. Retrieved 2020/09/19 13:00 UTC (3 hours ago):

VEMN 191300Z 03003KT 5000 HZ FEW025 33/28 Q0999 NOSIG

Closest aviation forecast (TAF) to Vijaynagar Advanced Landing Ground

Forecast is more than 12 hours old.

Closest forecast is Along Airport, 131.1 nm (242.7 km) WNW. Retrieved 2019/09/10 06:30 UTC (1 year ago):

TAF VEAN 100330Z 1006/1018 09008KT 6000 SCT020 SCT025 BKN090 TEMPO 1014/1018 3000 TSRA SCT025 FEW030CB BKN090